Cemaes Bay, United Kingdom
Current Conditions -  °F | °C
As of 2:50 AM on Saturday 22 Nov 2014 (Local Time) from EGOV Reporting Station
Haze Haze  
Wind Chill: 55°   Ceiling: 1400
Heat Index: 55°   Visibility: 6mi
Dew Point: 54°   Wind: 25mph
Humidity: 94%   Direction: 160°SSE
Pressure: 29.65"   Gusts: NA
Location:  53.41°N, 4.46°W
Report Text: EGOV 220250Z AUTO 16022KT 9000 HZ BKN014/// 13/12 Q1004 RERA
Loading
Personal Weather Stations






























Interactive Weather Map New forecast layout! Learn more

10-Day Weather Forecast

Advertisements
Track Severe Weather on mobile